createdAt,value
2022-08-03T00:01:44.500Z,99190.88
2022-08-03T00:04:12.432Z,99192.48
2022-08-03T00:06:40.166Z,99190.71
2022-08-03T00:09:08.371Z,99184.73
2022-08-03T00:11:37.101Z,99190.27
2022-08-03T00:14:05.783Z,99192.27
2022-08-03T00:16:34.344Z,99194.99
2022-08-03T00:19:03.286Z,99197.71
2022-08-03T00:21:31.048Z,99197.02
2022-08-03T00:23:58.799Z,99193.13
2022-08-03T00:26:26.628Z,99197.60
2022-08-03T00:28:54.389Z,99199.19
2022-08-03T00:31:35.226Z,99197.60
2022-08-03T00:34:08.131Z,99198.85
2022-08-03T00:36:36.225Z,99201.21
2022-08-03T00:39:04.282Z,99200.36
2022-08-03T00:41:32.052Z,99201.70
2022-08-03T00:43:59.804Z,99196.77
2022-08-03T00:46:27.648Z,99199.85
2022-08-03T00:48:55.522Z,99200.15
2022-08-03T00:51:24.069Z,99199.77
2022-08-03T00:53:51.822Z,99197.70
2022-08-03T00:56:19.778Z,99202.30
2022-08-03T00:58:47.683Z,99203.35
2022-08-03T01:01:16.637Z,99206.29
2022-08-03T01:03:45.519Z,99205.11
2022-08-03T01:06:20.091Z,99210.66
2022-08-03T01:09:22.944Z,99205.85
2022-08-03T01:12:04.045Z,99201.34
2022-08-03T01:14:41.715Z,99203.34
2022-08-03T01:17:19.353Z,99208.40
2022-08-03T01:19:56.770Z,99212.77
2022-08-03T01:22:33.476Z,99217.84
2022-08-03T01:25:16.331Z,99220.63
2022-08-03T01:27:49.992Z,99219.36
2022-08-03T01:30:17.860Z,99213.23
2022-08-03T01:33:00.888Z,99216.39
2022-08-03T01:35:43.302Z,99220.13
2022-08-03T01:38:15.306Z,99211.09
2022-08-03T01:40:44.960Z,99211.43
2022-08-03T01:43:55.312Z,99218.38
2022-08-03T01:46:09.712Z,99219.02
2022-08-03T01:48:40.014Z,99215.52
2022-08-03T01:51:10.573Z,99215.63
2022-08-03T01:53:43.994Z,99211.95
2022-08-03T01:56:13.980Z,99211.73
2022-08-03T01:58:44.534Z,99209.42
2022-08-03T02:01:13.791Z,99210.48
2022-08-03T02:04:00.301Z,99213.64
2022-08-03T02:06:59.987Z,99210.86
2022-08-03T02:09:22.079Z,99209.73
2022-08-03T02:11:52.097Z,99200.59
2022-08-03T02:14:22.085Z,99204.36
2022-08-03T02:16:51.267Z,99203.02
2022-08-03T02:19:19.690Z,99205.98
2022-08-03T02:21:56.803Z,99210.71
2022-08-03T02:24:30.044Z,99207.63
2022-08-03T02:26:59.229Z,99209.45
2022-08-03T02:29:39.688Z,99211.13
2022-08-03T02:32:15.119Z,99207.95
2022-08-03T02:34:47.608Z,99207.58
2022-08-03T02:37:18.667Z,99213.38
2022-08-03T02:39:47.996Z,99213.95
2022-08-03T02:42:18.879Z,99211.45
2022-08-03T02:44:50.465Z,99211.33
2022-08-03T02:47:21.421Z,99206.01
2022-08-03T02:49:52.390Z,99203.63
2022-08-03T02:52:23.411Z,99204.34
2022-08-03T02:54:55.055Z,99207.27
2022-08-03T02:57:25.713Z,99208.70
2022-08-03T02:59:55.163Z,99212.06
2022-08-03T03:02:24.975Z,99213.50
2022-08-03T03:04:58.079Z,99209.60
2022-08-03T03:07:51.490Z,99219.96
2022-08-03T03:10:22.679Z,99219.59
2022-08-03T03:12:52.775Z,99223.92
2022-08-03T03:15:21.067Z,99218.34
2022-08-03T03:17:51.285Z,99220.39
2022-08-03T03:20:29.068Z,99219.27
2022-08-03T03:23:00.322Z,99215.36
2022-08-03T03:25:31.821Z,99221.30
2022-08-03T03:28:02.248Z,99226.95
2022-08-03T03:30:30.200Z,99219.94
2022-08-03T03:32:58.995Z,99221.51
2022-08-03T03:35:27.837Z,99222.06
2022-08-03T03:37:56.581Z,99221.77
2022-08-03T03:40:24.927Z,99226.05
2022-08-03T03:42:52.858Z,99226.66
2022-08-03T03:45:22.137Z,99226.98
2022-08-03T03:47:50.323Z,99229.41
2022-08-03T03:50:19.558Z,99224.73
2022-08-03T03:52:47.297Z,99232.70
2022-08-03T03:55:18.607Z,99233.70
2022-08-03T03:57:46.764Z,99233.64
2022-08-03T04:00:16.732Z,99237.52
2022-08-03T04:02:46.200Z,99244.31
2022-08-03T04:05:33.798Z,99245.94
2022-08-03T04:08:25.235Z,99247.77
2022-08-03T04:11:02.886Z,99252.16
2022-08-03T04:13:37.792Z,99255.52
2022-08-03T04:16:07.977Z,99257.36
2022-08-03T04:18:39.073Z,99256.19
2022-08-03T04:21:11.394Z,99255.88
2022-08-03T04:23:44.053Z,99261.10
2022-08-03T04:26:15.132Z,99262.66
2022-08-03T04:28:48.123Z,99264.96
2022-08-03T04:31:18.091Z,99265.99
2022-08-03T04:33:46.952Z,99267.95
2022-08-03T04:36:21.219Z,99268.88
2022-08-03T04:39:04.504Z,99271.18
2022-08-03T04:42:07.020Z,99272.42
2022-08-03T04:44:28.444Z,99272.41
2022-08-03T04:46:58.360Z,99275.77
2022-08-03T04:49:27.027Z,99278.66
2022-08-03T04:51:54.866Z,99279.56
2022-08-03T04:54:22.636Z,99281.90
2022-08-03T04:56:50.335Z,99280.34
2022-08-03T04:59:18.166Z,99279.50
2022-08-03T05:01:46.050Z,99277.10
2022-08-03T05:04:14.570Z,99278.04
2022-08-03T05:06:48.070Z,99274.20
2022-08-03T05:09:49.848Z,99273.96
2022-08-03T05:12:08.953Z,99275.42
2022-08-03T05:14:38.854Z,99280.30
2022-08-03T05:17:07.288Z,99276.63
2022-08-03T05:19:35.337Z,99274.71
2022-08-03T05:22:03.380Z,99280.13
2022-08-03T05:24:31.051Z,99275.27
2022-08-03T05:26:58.803Z,99272.42
2022-08-03T05:29:26.560Z,99275.30
2022-08-03T05:31:54.318Z,99275.27
2022-08-03T05:34:22.074Z,99278.06
2022-08-03T05:36:49.741Z,99285.38
2022-08-03T05:39:17.501Z,99289.27
2022-08-03T05:41:45.294Z,99289.05
2022-08-03T05:44:13.023Z,99291.86
2022-08-03T05:46:40.718Z,99292.36
2022-08-03T05:49:08.514Z,99295.67
2022-08-03T05:51:37.219Z,99289.96
2022-08-03T05:54:05.158Z,99297.91
2022-08-03T05:56:32.992Z,99305.50
2022-08-03T05:59:16.322Z,99307.90
2022-08-03T06:01:48.580Z,99310.30
2022-08-03T06:04:19.173Z,99308.27
2022-08-03T06:06:47.617Z,99309.50
2022-08-03T06:09:18.066Z,99308.19
2022-08-03T06:11:45.998Z,99311.11
2022-08-03T06:14:13.781Z,99309.88
2022-08-03T06:16:41.543Z,99309.77
2022-08-03T06:19:09.457Z,99307.90
2022-08-03T06:21:37.225Z,99307.16
2022-08-03T06:24:08.073Z,99312.98
2022-08-03T06:26:35.878Z,99310.39
2022-08-03T06:29:03.897Z,99313.20
2022-08-03T06:31:32.364Z,99311.95
2022-08-03T06:34:33.749Z,99308.35
2022-08-03T06:36:52.279Z,99311.86
2022-08-03T06:39:24.349Z,99315.20
2022-08-03T06:41:53.544Z,99315.55
2022-08-03T06:44:21.324Z,99318.77
2022-08-03T06:46:49.374Z,99321.39
2022-08-03T06:49:17.674Z,99326.88
2022-08-03T06:52:05.090Z,99329.99
2022-08-03T06:54:33.950Z,99331.96
2022-08-03T06:57:01.791Z,99333.59
2022-08-03T07:00:06.051Z,99326.61
2022-08-03T07:02:19.880Z,99332.64
2022-08-03T07:04:50.633Z,99332.98
2022-08-03T07:07:19.482Z,99332.77
2022-08-03T07:09:55.660Z,99335.11
2022-08-03T07:12:29.830Z,99337.20
2022-08-03T07:15:02.126Z,99335.80
2022-08-03T07:17:32.822Z,99335.98
2022-08-03T07:20:01.814Z,99330.67
2022-08-03T07:22:29.696Z,99330.45
2022-08-03T07:24:57.864Z,99326.08
2022-08-03T07:27:27.139Z,99331.31
2022-08-03T07:29:55.726Z,99333.48
2022-08-03T07:32:24.192Z,99334.27
2022-08-03T07:34:53.098Z,99337.85
2022-08-03T07:37:23.520Z,99334.80
2022-08-03T07:39:51.296Z,99338.31
2022-08-03T07:42:19.263Z,99340.33
2022-08-03T07:44:47.123Z,99338.47
2022-08-03T07:47:22.435Z,99343.62
2022-08-03T07:49:50.881Z,99339.80
2022-08-03T07:52:54.235Z,99337.20
2022-08-03T07:55:25.120Z,99339.64
2022-08-03T07:58:12.309Z,99341.55
2022-08-03T08:00:40.223Z,99340.60
2022-08-03T08:03:08.364Z,99340.60
2022-08-03T08:05:37.377Z,99336.34
2022-08-03T08:08:05.883Z,99340.98
2022-08-03T08:10:33.980Z,99332.62
2022-08-03T08:13:01.913Z,99335.09
2022-08-03T08:15:30.103Z,99330.17
2022-08-03T08:18:00.219Z,99330.42
2022-08-03T08:20:31.731Z,99338.08
2022-08-03T08:23:17.302Z,99337.11
2022-08-03T08:25:56.330Z,99339.80
2022-08-03T08:28:32.935Z,99341.08
2022-08-03T08:31:02.135Z,99339.98
2022-08-03T08:33:54.217Z,99345.02
2022-08-03T08:36:19.434Z,99340.27
2022-08-03T08:38:47.882Z,99344.39
2022-08-03T08:41:16.254Z,99337.02
2022-08-03T08:43:44.056Z,99338.79
2022-08-03T08:46:23.274Z,99339.42
2022-08-03T08:48:53.830Z,99338.95
2022-08-03T08:51:22.702Z,99336.94
2022-08-03T08:53:53.925Z,99339.59
2022-08-03T08:56:26.021Z,99336.30
2022-08-03T08:58:58.664Z,99332.80
2022-08-03T09:01:27.557Z,99332.39
2022-08-03T09:03:55.553Z,99336.45
2022-08-03T09:06:24.409Z,99335.84
2022-08-03T09:08:52.432Z,99332.04
2022-08-03T09:11:57.589Z,99332.58
2022-08-03T09:14:37.070Z,99331.16
2022-08-03T09:17:02.274Z,99326.98
2022-08-03T09:19:31.875Z,99324.16
2022-08-03T09:22:13.406Z,99323.86
2022-08-03T09:25:22.877Z,99326.04
2022-08-03T09:27:47.260Z,99323.00
2022-08-03T09:30:33.155Z,99322.31
2022-08-03T09:33:05.055Z,99319.30
2022-08-03T09:38:26.473Z,99317.77
2022-08-03T09:40:59.878Z,99314.08
2022-08-03T09:43:28.821Z,99309.06
2022-08-03T09:46:05.219Z,99312.14
2022-08-03T09:48:37.358Z,99306.81
2022-08-03T09:51:14.467Z,99304.23
2022-08-03T09:53:59.626Z,99305.34
2022-08-03T09:56:41.287Z,99307.39
2022-08-03T09:59:10.710Z,99303.19
2022-08-03T10:01:41.929Z,99303.73
2022-08-03T10:04:15.314Z,99301.29
2022-08-03T10:06:46.897Z,99300.92
2022-08-03T10:09:16.620Z,99298.02
2022-08-03T10:11:47.053Z,99303.12
2022-08-03T10:14:21.012Z,99305.19
2022-08-03T10:16:49.734Z,99307.52
2022-08-03T10:19:17.644Z,99309.58
2022-08-03T10:21:53.759Z,99303.23
2022-08-03T10:24:27.379Z,99303.98
2022-08-03T10:27:07.512Z,99302.38
2022-08-03T10:29:39.572Z,99304.33
2022-08-03T10:32:22.294Z,99298.23
2022-08-03T10:34:52.332Z,99299.11
2022-08-03T10:37:32.251Z,99295.59
2022-08-03T10:40:01.006Z,99296.69
2022-08-03T10:42:31.463Z,99302.58
2022-08-03T10:45:16.568Z,99300.66
2022-08-03T10:47:45.396Z,99306.01
2022-08-03T10:50:13.469Z,99303.23
2022-08-03T10:52:55.867Z,99303.45
2022-08-03T10:55:51.614Z,99307.10
2022-08-03T10:58:53.363Z,99300.55
2022-08-03T11:02:00.304Z,99304.64
2022-08-03T11:04:30.334Z,99297.40
2022-08-03T11:07:17.609Z,99293.31
2022-08-03T11:09:50.882Z,99293.67
2022-08-03T11:12:21.331Z,99292.55
2022-08-03T11:15:00.302Z,99290.15
2022-08-03T11:17:28.189Z,99296.85
2022-08-03T11:19:57.972Z,99292.55
2022-08-03T11:22:28.292Z,99284.79
2022-08-03T11:24:57.411Z,99287.86
2022-08-03T11:27:27.461Z,99280.48
2022-08-03T11:30:10.301Z,99278.56
2022-08-03T11:32:38.342Z,99282.71
2022-08-03T11:35:24.704Z,99275.16
2022-08-03T11:38:03.604Z,99275.08
2022-08-03T11:40:52.972Z,99274.93
2022-08-03T11:43:37.499Z,99272.21
2022-08-03T11:46:07.266Z,99275.17
2022-08-03T11:48:37.924Z,99270.64
2022-08-03T11:51:08.450Z,99269.17
2022-08-03T11:53:42.122Z,99270.13
2022-08-03T11:56:12.638Z,99267.88
2022-08-03T11:58:57.732Z,99260.19
2022-08-03T12:01:41.711Z,99267.66
2022-08-03T12:04:10.828Z,99265.95
2022-08-03T12:06:56.898Z,99264.08
2022-08-03T12:09:24.629Z,99260.58
2022-08-03T12:12:00.305Z,99260.10
2022-08-03T12:14:50.624Z,99259.52
2022-08-03T12:17:18.712Z,99261.65
2022-08-03T12:19:46.757Z,99251.55
2022-08-03T12:22:16.854Z,99254.90
2022-08-03T12:24:46.777Z,99252.75
2022-08-03T12:27:26.513Z,99251.84
2022-08-03T12:29:58.237Z,99256.54
2022-08-03T12:32:27.997Z,99252.23
2022-08-03T12:35:05.986Z,99250.53
2022-08-03T12:37:34.191Z,99247.63
2022-08-03T12:40:10.032Z,99252.70
2022-08-03T12:42:39.742Z,99249.06
2022-08-03T12:45:24.043Z,99248.14
2022-08-03T12:47:54.270Z,99245.67
2022-08-03T12:50:33.476Z,99244.85
2022-08-03T12:53:07.864Z,99251.38
2022-08-03T12:55:56.253Z,99244.82
2022-08-03T12:58:35.813Z,99245.13
2022-08-03T13:01:10.168Z,99241.29
2022-08-03T13:03:50.245Z,99242.17
2022-08-03T13:06:25.622Z,99236.69
2022-08-03T13:09:07.540Z,99234.04
2022-08-03T13:11:57.966Z,99231.05
2022-08-03T13:14:23.744Z,99233.17
2022-08-03T13:16:52.141Z,99229.52
2022-08-03T13:19:20.304Z,99228.61
2022-08-03T13:22:01.289Z,99222.02
2022-08-03T13:24:33.783Z,99222.58
2022-08-03T13:28:01.811Z,99218.81
2022-08-03T13:29:50.915Z,99216.65
2022-08-03T13:32:18.926Z,99212.36
2022-08-03T13:34:46.864Z,99218.98
2022-08-03T13:37:15.644Z,99215.14
2022-08-03T13:39:58.149Z,99207.31
2022-08-03T13:42:31.999Z,99208.77
2022-08-03T13:45:00.922Z,99209.73
2022-08-03T13:47:28.846Z,99208.92
2022-08-03T13:50:01.807Z,99216.13
2022-08-03T13:52:36.228Z,99205.92
2022-08-03T13:55:06.017Z,99199.48
2022-08-03T13:58:04.905Z,99206.20
2022-08-03T14:00:28.981Z,99205.84
2022-08-03T14:03:12.509Z,99200.70
2022-08-03T14:05:43.313Z,99207.58
2022-08-03T14:08:11.970Z,99203.91
2022-08-03T14:10:44.001Z,99205.98
2022-08-03T14:13:14.483Z,99205.05
2022-08-03T14:15:51.039Z,99201.14
2022-08-03T14:18:28.733Z,99204.23
2022-08-03T14:21:06.916Z,99206.13
2022-08-03T14:23:36.888Z,99197.70
2022-08-03T14:26:08.837Z,99201.86
2022-08-03T14:28:36.605Z,99196.77
2022-08-03T14:31:08.358Z,99193.46
2022-08-03T14:33:43.284Z,99191.34
2022-08-03T14:36:11.183Z,99187.21
2022-08-03T14:38:38.953Z,99187.95
2022-08-03T14:41:06.731Z,99185.98
2022-08-03T14:43:40.198Z,99178.50
2022-08-03T14:46:27.917Z,99180.75
2022-08-03T14:50:34.601Z,99174.41
2022-08-03T14:51:51.588Z,99178.59
2022-08-03T14:54:22.827Z,99184.59
2022-08-03T14:56:51.061Z,99181.42
2022-08-03T14:59:18.847Z,99181.55
2022-08-03T15:02:04.973Z,99182.59
2022-08-03T15:04:34.280Z,99178.90
2022-08-03T15:07:02.038Z,99176.71
2022-08-03T15:09:29.741Z,99173.09
2022-08-03T15:11:57.556Z,99166.59
2022-08-03T15:14:32.278Z,99162.25
2022-08-03T15:17:01.233Z,99153.69
2022-08-03T15:20:01.078Z,99152.57
2022-08-03T15:22:19.030Z,99154.78
2022-08-03T15:24:48.760Z,99155.66
2022-08-03T15:27:16.636Z,99156.21
2022-08-03T15:30:09.433Z,99154.41
2022-08-03T15:32:33.662Z,99152.09
2022-08-03T15:35:01.617Z,99151.86
2022-08-03T15:37:29.468Z,99153.31
2022-08-03T15:39:59.603Z,99149.80
2022-08-03T15:42:30.304Z,99148.70
2022-08-03T15:44:58.475Z,99144.95
2022-08-03T15:47:26.776Z,99142.27
2022-08-03T15:49:54.725Z,99143.92
2022-08-03T15:52:22.626Z,99144.42
2022-08-03T15:54:50.609Z,99143.47
2022-08-03T15:57:18.887Z,99144.17
2022-08-03T15:59:47.167Z,99140.95
2022-08-03T16:02:15.125Z,99139.27
2022-08-03T16:04:43.085Z,99137.33
2022-08-03T16:07:12.859Z,99140.16
2022-08-03T16:09:43.235Z,99138.95
2022-08-03T16:12:16.552Z,99135.91
2022-08-03T16:14:52.696Z,99138.59
2022-08-03T16:17:22.697Z,99139.52
2022-08-03T16:19:54.716Z,99137.63
2022-08-03T16:22:26.174Z,99131.12
2022-08-03T16:24:54.766Z,99133.48
2022-08-03T16:28:00.429Z,99132.92
2022-08-03T16:30:12.869Z,99130.88
2022-08-03T16:32:40.860Z,99132.79
2022-08-03T16:35:09.297Z,99131.98
2022-08-03T16:37:53.781Z,99132.44
2022-08-03T16:40:26.102Z,99129.94
2022-08-03T16:42:54.127Z,99133.86
2022-08-03T16:45:21.963Z,99135.42
2022-08-03T16:48:01.650Z,99140.52
2022-08-03T16:50:35.292Z,99140.06
2022-08-03T16:53:10.088Z,99144.18
2022-08-03T16:55:52.138Z,99143.27
2022-08-03T16:58:34.762Z,99140.34
2022-08-03T17:01:21.913Z,99147.40
2022-08-03T17:04:03.299Z,99144.85
2022-08-03T17:06:36.881Z,99148.02
2022-08-03T17:09:12.083Z,99148.86
2022-08-03T17:11:44.162Z,99148.25
2022-08-03T17:14:22.995Z,99147.31
2022-08-03T17:17:01.623Z,99153.30
2022-08-03T17:19:32.265Z,99156.16
2022-08-03T17:22:04.208Z,99154.13
2022-08-03T17:24:41.556Z,99160.13
2022-08-03T17:28:42.291Z,99161.27
2022-08-03T17:30:07.781Z,99168.77
2022-08-03T17:32:42.350Z,99170.29
2022-08-03T17:35:11.234Z,99168.76
2022-08-03T17:37:58.387Z,99172.96
2022-08-03T17:40:28.975Z,99170.05
2022-08-03T17:43:00.807Z,99174.96
2022-08-03T17:45:42.301Z,99183.38
2022-08-03T17:48:17.807Z,99186.83
2022-08-03T17:50:51.554Z,99188.81
2022-08-03T17:53:24.296Z,99184.35
2022-08-03T17:56:04.908Z,99184.48
2022-08-03T17:59:14.916Z,99191.81
2022-08-03T18:02:23.636Z,99195.15
2022-08-03T18:07:59.539Z,99198.73
2022-08-03T18:10:35.093Z,99194.88
2022-08-03T18:13:14.287Z,99195.40
2022-08-03T18:16:04.490Z,99199.76
2022-08-03T18:18:43.198Z,99205.49
2022-08-03T18:21:16.754Z,99207.79
2022-08-03T18:23:46.122Z,99211.02
2022-08-03T18:26:19.318Z,99217.98
2022-08-03T18:28:49.263Z,99217.84
2022-08-03T18:31:33.243Z,99220.70
2022-08-03T18:34:16.433Z,99222.99
2022-08-03T18:36:49.030Z,99227.27
2022-08-03T18:39:19.654Z,99227.97
2022-08-03T18:41:47.832Z,99228.66
2022-08-03T18:44:53.181Z,99228.56
2022-08-03T18:47:23.218Z,99233.17
2022-08-03T18:50:03.347Z,99237.45
2022-08-03T18:52:39.441Z,99237.18
2022-08-03T18:55:35.455Z,99239.17
2022-08-03T18:58:15.860Z,99240.70
2022-08-03T19:01:03.524Z,99246.73
2022-08-03T19:03:43.402Z,99240.65
2022-08-03T19:06:20.005Z,99242.64
2022-08-03T19:09:04.453Z,99246.20
2022-08-03T19:12:13.926Z,99244.55
2022-08-03T19:14:39.250Z,99245.14
2022-08-03T19:17:11.047Z,99239.63
2022-08-03T19:19:44.867Z,99248.20
2022-08-03T19:22:16.002Z,99249.23
2022-08-03T19:24:45.946Z,99249.36
2022-08-03T19:27:15.919Z,99256.37
2022-08-03T19:29:59.944Z,99256.91
2022-08-03T19:32:31.700Z,99256.23
2022-08-03T19:35:03.424Z,99258.16
2022-08-03T19:37:38.083Z,99255.20
2022-08-03T19:40:10.222Z,99257.62
2022-08-03T19:42:40.930Z,99257.41
2022-08-03T19:45:11.291Z,99259.70
2022-08-03T19:47:51.590Z,99263.69
2022-08-03T19:50:20.668Z,99267.40
2022-08-03T19:52:50.083Z,99263.95
2022-08-03T19:55:18.599Z,99267.89
2022-08-03T20:00:38.344Z,99271.35
2022-08-03T20:03:19.677Z,99269.08
2022-08-03T20:05:52.223Z,99270.59
2022-08-03T20:08:22.209Z,99273.19
2022-08-03T20:13:39.162Z,99277.29
2022-08-03T20:16:07.051Z,99282.83
2022-08-03T20:18:39.423Z,99285.73
2022-08-03T20:21:14.843Z,99286.98
2022-08-03T20:24:02.758Z,99292.77
2022-08-03T20:26:32.244Z,99293.52
2022-08-03T20:29:09.144Z,99289.38
2022-08-03T20:31:37.792Z,99282.45
2022-08-03T20:34:06.947Z,99287.23
2022-08-03T20:36:36.900Z,99291.14
2022-08-03T20:39:07.746Z,99289.27
2022-08-03T20:41:35.973Z,99285.94
2022-08-03T20:44:04.744Z,99289.73
2022-08-03T20:46:41.688Z,99284.12
2022-08-03T20:49:23.090Z,99283.92
2022-08-03T20:51:53.160Z,99287.94
2022-08-03T20:54:30.826Z,99285.63
2022-08-03T20:57:03.847Z,99283.80
2022-08-03T20:59:50.582Z,99285.56
2022-08-03T21:02:29.563Z,99288.52
2022-08-03T21:05:02.998Z,99291.49
2022-08-03T21:08:06.324Z,99285.24
2022-08-03T21:10:39.645Z,99287.95
2022-08-03T21:13:03.563Z,99282.04
2022-08-03T21:13:05.312Z,99198.78
2022-08-03T21:13:08.996Z,99271.45
2022-08-03T21:13:23.795Z,99286.61
2022-08-03T21:16:07.015Z,99289.90
2022-08-03T21:18:49.221Z,99292.95
2022-08-03T21:21:20.136Z,99293.12
2022-08-03T21:23:52.696Z,99295.48
2022-08-03T21:26:22.978Z,99293.50
2022-08-03T21:28:52.931Z,99293.98
2022-08-03T21:31:25.719Z,99292.77
2022-08-03T21:34:01.721Z,99294.88
2022-08-03T21:36:32.709Z,99295.35
2022-08-03T21:39:01.426Z,99293.15
2022-08-03T21:41:31.977Z,99292.73
2022-08-03T21:44:01.123Z,99290.36
2022-08-03T21:46:35.170Z,99295.77
2022-08-03T21:49:52.090Z,99296.45
2022-08-03T21:51:54.533Z,99299.23
2022-08-03T21:54:27.207Z,99300.92
2022-08-03T21:56:54.995Z,99305.19
2022-08-03T21:59:23.704Z,99300.48
2022-08-03T22:01:55.422Z,99306.29
2022-08-03T22:04:37.209Z,99303.52
2022-08-03T22:07:15.925Z,99310.22
2022-08-03T22:09:51.363Z,99304.42
2022-08-03T22:12:22.730Z,99307.41
2022-08-03T22:15:00.443Z,99303.97
2022-08-03T22:17:55.837Z,99301.70
2022-08-03T22:20:20.392Z,99300.69
2022-08-03T22:22:54.947Z,99296.80
2022-08-03T22:25:29.177Z,99297.73
2022-08-03T22:27:58.210Z,99295.05
2022-08-03T22:30:26.685Z,99295.96
2022-08-03T22:32:56.367Z,99294.98
2022-08-03T22:35:25.845Z,99293.27
2022-08-03T22:37:57.298Z,99290.23
2022-08-03T22:40:27.182Z,99285.80
2022-08-03T22:42:55.189Z,99281.63
2022-08-03T22:45:45.545Z,99281.05
2022-08-03T22:48:11.223Z,99274.09
2022-08-03T22:50:39.475Z,99276.83
2022-08-03T22:53:07.683Z,99277.74
2022-08-03T22:55:36.971Z,99269.30
2022-08-03T22:58:04.691Z,99271.27
2022-08-03T23:00:32.423Z,99277.44
2022-08-03T23:03:02.626Z,99275.89
2022-08-03T23:06:02.231Z,99277.64
2022-08-03T23:08:25.182Z,99281.31
2022-08-03T23:10:56.629Z,99276.72
2022-08-03T23:13:25.464Z,99285.66
2022-08-03T23:15:58.114Z,99279.89
2022-08-03T23:18:31.181Z,99276.17
2022-08-03T23:21:09.233Z,99282.01
2022-08-03T23:23:44.155Z,99284.69
2022-08-03T23:26:15.582Z,99279.45
2022-08-03T23:28:47.223Z,99276.85
2022-08-03T23:31:15.749Z,99276.56
2022-08-03T23:33:45.722Z,99279.47
2022-08-03T23:36:30.410Z,99282.54
2022-08-03T23:39:02.472Z,99279.13
2022-08-03T23:41:32.029Z,99280.77
2022-08-03T23:44:03.639Z,99276.52
2022-08-03T23:46:32.757Z,99273.16
2022-08-03T23:49:00.524Z,99280.83
2022-08-03T23:52:05.574Z,99275.80
2022-08-03T23:54:58.357Z,99275.67
2022-08-03T23:57:47.309Z,99276.42
